Shin Mei Maru — JG5617 — position and weather

sailwx.info

Track history (hours):
 
Tides and Currents Weather Stations Pressure Air Temp Water Temp Dewpoint Dewpoint Depression Visibility Wind Speed Wind Dir Waves Ship Positions

Shin Mei Maru

Last reported at 2015-Jul-01 19:14 UTC. Time now 2015-Jul-04 03:24 UTC.
Position N 36°03' E 141°02'.

Length 160 m; draft 6.8 m.

Type: Cargo ship. MMSI: 431100922.

Date/timePositionNaut miles runAvg speedWind from/ knotsBaromVisibWave heightAir tempDewpointWater temp
2015-Jul-01 19:14N 36°03' E 141°02'1319.3
2015-Jul-01 18:33N 35°50' E 140°59'1818.6
2015-Jul-01 17:33N 35°33' E 140°52'2019.4
2015-Jul-01 16:31N 35°16' E 140°38'1919.8
2015-Jul-01 15:32N 35°02' E 140°22'2020.0
2015-Jul-01 14:31N 34°53' E 139°59'1717.3
2015-Jul-01 13:32N 34°53' E 139°38'1616.9
2015-Jul-01 12:33N 35°09' E 139°45'1313.2
2015-Jul-01 11:33N 35°22' E 139°42'1414.1
2015-Jul-01 10:34N 35°35' E 139°47'3 2.8
2015-Jul-01 09:29N 35°38' E 139°46'0 0.0
2015-Jul-01 08:26N 35°38' E 139°46'0 0.0
2015-Jul-01 07:29N 35°38' E 139°46'0 0.0
2015-Jul-01 06:14N 35°38' E 139°46'0 0.0
2015-Jul-01 05:32N 35°38' E 139°46'6 6.5
2015-Jul-01 04:33N 35°33' E 139°51'1514.9
2015-Jul-01 03:33N 35°19' E 139°44'1514.6
2015-Jul-01 02:33N 35°05' E 139°43'24417.2
2015-Jun-30 12:21N 33°54' E 134°59'1519.5
2015-Jun-30 11:33N 34°09' E 134°58'1817.6
2015-Jun-30 10:33N 34°26' E 135°04'1817.5
2015-Jun-30 09:33N 34°36' E 135°22'3 2.3
2015-Jun-30 08:25N 34°37' E 135°25'0 0.0
2015-Jun-30 07:25N 34°37' E 135°25'0 0.0
2015-Jun-30 06:31N 34°37' E 135°25'0 0.0
2015-Jun-30 05:31N 34°37' E 135°25'0 0.0
2015-Jun-30 04:31N 34°37' E 135°25'0 0.0
2015-Jun-30 03:31N 34°37' E 135°25'0 0.0
2015-Jun-30 02:31N 34°37' E 135°25'0 0.0
2015-Jun-30 01:31N 34°37' E 135°25'1 0.8
2015-Jun-30 00:33N 34°36' E 135°24'1716.9
2015-Jun-29 23:33N 34°26' E 135°08'1716.8
2015-Jun-29 22:33N 34°11' E 134°59'23314.6
2015-Jun-29 06:33N 35°03' E 139°36'1615.7
2015-Jun-29 05:33N 35°16' E 139°46'1212.2
2015-Jun-29 04:33N 35°28' E 139°48'1010.3
2015-Jun-29 03:34N 35°38' E 139°46'0 0.0
2015-Jun-29 02:29N 35°38' E 139°46'0 0.0
2015-Jun-29 01:33N 35°38' E 139°46'0 0.0
2015-Jun-29 00:09N 35°38' E 139°46'0 0.0
2015-Jun-28 23:21N 35°38' E 139°46'0 0.0
2015-Jun-28 22:33N 35°38' E 139°46'5 4.8
2015-Jun-28 21:34N 35°34' E 139°49'1313.2
2015-Jun-28 20:34N 35°21' E 139°45'1111.3
2015-Jun-28 19:33N 35°10' E 139°47'1818.1
2015-Jun-28 18:33N 34°52' E 139°43'1414.0
2015-Jun-28 17:33N 34°52' E 140°00'1818.5
2015-Jun-28 16:33N 35°01' E 140°20'2217.8
2015-Jun-28 15:18N 35°18' E 140°38'1418.2
2015-Jun-28 14:32N 35°29' E 140°48'  
2015-Jun-24 17:33N 35°42' E 141°00'4320.1
2015-Jun-24 15:25N 35°08' E 140°29'1719.4
2015-Jun-24 14:33N 34°58' E 140°13'2019.2
2015-Jun-24 13:32N 34°51' E 139°50'1616.6
2015-Jun-24 12:33N 35°07' E 139°44'1413.9
2015-Jun-24 11:33N 35°21' E 139°42'1514.6
2015-Jun-24 10:33N 35°34' E 139°49'4 4.0
2015-Jun-24 09:26N 35°38' E 139°46'0 0.0
2015-Jun-24 08:32N 35°38' E 139°46'0 0.0
2015-Jun-24 06:32N 35°38' E 139°46'0 0.0
2015-Jun-24 05:29N 35°38' E 139°46'3 3.6
2015-Jun-24 04:33N 35°35' E 139°48'1312.8
2015-Jun-24 03:33N 35°22' E 139°45'1313.4
2015-Jun-24 02:33N 35°09' E 139°46'2619.7
2015-Jun-24 01:13N 34°52' E 139°22'5919.3
2015-Jun-23 22:10N 34°19' E 138°22'64 1.7
2015-Jun-22 08:20N 34°57' E 139°26'1519.4
2015-Jun-22 07:33N 35°05' E 139°40'1413.6
2015-Jun-22 06:33N 35°19' E 139°43'1414.3
2015-Jun-22 05:34N 35°32' E 139°51'7 7.2
2015-Jun-22 04:33N 35°38' E 139°46'0 0.0
2015-Jun-22 03:26N 35°38' E 139°46'0 0.0
2015-Jun-22 02:32N 35°38' E 139°46'0 0.0
2015-Jun-22 01:29N 35°38' E 139°46'0 0.0
2015-Jun-22 00:32N 35°38' E 139°46'0 0.0
2015-Jun-21 23:32N 35°38' E 139°46'0 0.0
2015-Jun-21 22:32N 35°38' E 139°46'0 0.0
2015-Jun-21 21:33N 35°38' E 139°46'1212.2
2015-Jun-21 20:33N 35°26' E 139°48'1212.3
2015-Jun-21 19:33N 35°13' E 139°47'  
Track history (hours):
 
Tides and Currents Weather Stations Pressure Air Temp Water Temp Dewpoint Dewpoint Depression Visibility Wind Speed Wind Dir Waves Ship Positions

Shin Mei Maru

Last reported at 2015-Jul-01 19:14 UTC. Time now 2015-Jul-04 03:24 UTC.
Position N 36°03' E 141°02'.

Length 160 m; draft 6.8 m.

Type: Cargo ship. MMSI: 431100922.

Date/timePositionNaut miles runAvg speedWind from/ knotsBaromVisibWave heightAir tempDewpointWater temp
2015-Jul-01 19:14N 36°03' E 141°02'1319.3
2015-Jul-01 18:33N 35°50' E 140°59'1818.6
2015-Jul-01 17:33N 35°33' E 140°52'2019.4
2015-Jul-01 16:31N 35°16' E 140°38'1919.8
2015-Jul-01 15:32N 35°02' E 140°22'2020.0
2015-Jul-01 14:31N 34°53' E 139°59'1717.3
2015-Jul-01 13:32N 34°53' E 139°38'1616.9
2015-Jul-01 12:33N 35°09' E 139°45'1313.2
2015-Jul-01 11:33N 35°22' E 139°42'1414.1
2015-Jul-01 10:34N 35°35' E 139°47'3 2.8
2015-Jul-01 09:29N 35°38' E 139°46'0 0.0
2015-Jul-01 08:26N 35°38' E 139°46'0 0.0
2015-Jul-01 07:29N 35°38' E 139°46'0 0.0
2015-Jul-01 06:14N 35°38' E 139°46'0 0.0
2015-Jul-01 05:32N 35°38' E 139°46'6 6.5
2015-Jul-01 04:33N 35°33' E 139°51'1514.9
2015-Jul-01 03:33N 35°19' E 139°44'1514.6
2015-Jul-01 02:33N 35°05' E 139°43'24417.2
2015-Jun-30 12:21N 33°54' E 134°59'1519.5
2015-Jun-30 11:33N 34°09' E 134°58'1817.6
2015-Jun-30 10:33N 34°26' E 135°04'1817.5
2015-Jun-30 09:33N 34°36' E 135°22'3 2.3
2015-Jun-30 08:25N 34°37' E 135°25'0 0.0
2015-Jun-30 07:25N 34°37' E 135°25'0 0.0
2015-Jun-30 06:31N 34°37' E 135°25'0 0.0
2015-Jun-30 05:31N 34°37' E 135°25'0 0.0
2015-Jun-30 04:31N 34°37' E 135°25'0 0.0
2015-Jun-30 03:31N 34°37' E 135°25'0 0.0
2015-Jun-30 02:31N 34°37' E 135°25'0 0.0
2015-Jun-30 01:31N 34°37' E 135°25'1 0.8
2015-Jun-30 00:33N 34°36' E 135°24'1716.9
2015-Jun-29 23:33N 34°26' E 135°08'1716.8
2015-Jun-29 22:33N 34°11' E 134°59'23314.6
2015-Jun-29 06:33N 35°03' E 139°36'1615.7
2015-Jun-29 05:33N 35°16' E 139°46'1212.2
2015-Jun-29 04:33N 35°28' E 139°48'1010.3
2015-Jun-29 03:34N 35°38' E 139°46'0 0.0
2015-Jun-29 02:29N 35°38' E 139°46'0 0.0
2015-Jun-29 01:33N 35°38' E 139°46'0 0.0
2015-Jun-29 00:09N 35°38' E 139°46'0 0.0
2015-Jun-28 23:21N 35°38' E 139°46'0 0.0
2015-Jun-28 22:33N 35°38' E 139°46'5 4.8
2015-Jun-28 21:34N 35°34' E 139°49'1313.2
2015-Jun-28 20:34N 35°21' E 139°45'1111.3
2015-Jun-28 19:33N 35°10' E 139°47'1818.1
2015-Jun-28 18:33N 34°52' E 139°43'1414.0
2015-Jun-28 17:33N 34°52' E 140°00'1818.5
2015-Jun-28 16:33N 35°01' E 140°20'2217.8
2015-Jun-28 15:18N 35°18' E 140°38'1418.2
2015-Jun-28 14:32N 35°29' E 140°48'  
2015-Jun-24 17:33N 35°42' E 141°00'4320.1
2015-Jun-24 15:25N 35°08' E 140°29'1719.4
2015-Jun-24 14:33N 34°58' E 140°13'2019.2
2015-Jun-24 13:32N 34°51' E 139°50'1616.6
2015-Jun-24 12:33N 35°07' E 139°44'1413.9
2015-Jun-24 11:33N 35°21' E 139°42'1514.6
2015-Jun-24 10:33N 35°34' E 139°49'4 4.0
2015-Jun-24 09:26N 35°38' E 139°46'0 0.0
2015-Jun-24 08:32N 35°38' E 139°46'0 0.0
2015-Jun-24 06:32N 35°38' E 139°46'0 0.0
2015-Jun-24 05:29N 35°38' E 139°46'3 3.6
2015-Jun-24 04:33N 35°35' E 139°48'1312.8
2015-Jun-24 03:33N 35°22' E 139°45'1313.4
2015-Jun-24 02:33N 35°09' E 139°46'2619.7
2015-Jun-24 01:13N 34°52' E 139°22'5919.3
2015-Jun-23 22:10N 34°19' E 138°22'64 1.7
2015-Jun-22 08:20N 34°57' E 139°26'1519.4
2015-Jun-22 07:33N 35°05' E 139°40'1413.6
2015-Jun-22 06:33N 35°19' E 139°43'1414.3
2015-Jun-22 05:34N 35°32' E 139°51'7 7.2
2015-Jun-22 04:33N 35°38' E 139°46'0 0.0
2015-Jun-22 03:26N 35°38' E 139°46'0 0.0
2015-Jun-22 02:32N 35°38' E 139°46'0 0.0
2015-Jun-22 01:29N 35°38' E 139°46'0 0.0
2015-Jun-22 00:32N 35°38' E 139°46'0 0.0
2015-Jun-21 23:32N 35°38' E 139°46'0 0.0
2015-Jun-21 22:32N 35°38' E 139°46'0 0.0
2015-Jun-21 21:33N 35°38' E 139°46'1212.2
2015-Jun-21 20:33N 35°26' E 139°48'1212.3
2015-Jun-21 19:33N 35°13' E 139°47'  

Dump ship's entire track history